QRA weather

Rand Airport
Johannesburg, Gauteng, South Africa

Public forecast

Using degrees Celsius for public forecast. Weather courtesy of forecast.io.

METAR (pilot weather report)

Report is more than 6 hours old.

Retrieved 2018/04/23 14:00 UTC (2 days ago):

FAGM 231400Z 26007KT CAVOK 23/M01 Q1025

TAF (pilot weather forecast)

Forecast is more than 12 hours old.

Closest forecast is OR Tambo International Airport, 8.0 nm (14.9 km) NE. Retrieved 2018/04/24 00:00 UTC (1 day ago):

TAF FAOR 242200Z 2500/2606 17008KT CAVOK BECMG 2503/2505 08010KT BECMG 2509/2511 34007KT TX24/2512Z TN11/2604Z